createdAt,value
2018-09-22T00:02:02.442Z,7.55
2018-09-22T00:04:31.117Z,16.02
2018-09-22T00:06:59.853Z,10.72
2018-09-22T00:09:28.615Z,6.30
2018-09-22T00:11:57.398Z,5.17
2018-09-22T00:14:26.296Z,10.43
2018-09-22T00:16:54.898Z,5.15
2018-09-22T00:19:23.608Z,6.92
2018-09-22T00:21:52.211Z,6.80
2018-09-22T00:24:20.888Z,13.08
2018-09-22T00:26:49.524Z,12.40
2018-09-22T00:29:18.118Z,6.92
2018-09-22T00:31:46.743Z,5.35
2018-09-22T00:34:15.352Z,8.40
2018-09-22T00:36:43.943Z,11.15
2018-09-22T00:39:12.639Z,8.38
2018-09-22T00:41:41.233Z,5.80
2018-09-22T00:44:09.843Z,3.80
2018-09-22T00:46:38.600Z,7.33
2018-09-22T00:49:07.209Z,10.72
2018-09-22T00:51:35.821Z,6.00
2018-09-22T00:54:04.519Z,10.93
2018-09-22T00:56:33.105Z,10.03
2018-09-22T00:59:01.692Z,15.23
2018-09-22T01:01:30.665Z,5.62
2018-09-22T01:03:59.335Z,7.00
2018-09-22T01:06:28.074Z,9.90
2018-09-22T01:08:56.653Z,4.08
2018-09-22T01:11:25.227Z,8.43
2018-09-22T01:13:53.924Z,4.67
2018-09-22T01:16:22.600Z,5.17
2018-09-22T01:18:51.226Z,4.12
2018-09-22T01:21:19.863Z,10.18
2018-09-22T01:23:48.477Z,9.08
2018-09-22T01:26:17.122Z,7.20
2018-09-22T01:28:45.650Z,4.67
2018-09-22T01:31:14.246Z,8.88
2018-09-22T01:33:42.957Z,6.40
2018-09-22T01:36:11.684Z,5.20
2018-09-22T01:38:40.453Z,7.72
2018-09-22T01:41:09.128Z,6.37
2018-09-22T01:43:37.780Z,7.08
2018-09-22T01:46:06.388Z,4.33
2018-09-22T01:48:35.018Z,9.43
2018-09-22T01:51:03.660Z,6.17
2018-09-22T01:53:32.266Z,13.20
2018-09-22T01:56:00.869Z,9.85
2018-09-22T01:58:29.446Z,5.37
2018-09-22T02:00:58.041Z,8.23
2018-09-22T02:03:26.646Z,12.55
2018-09-22T02:05:55.194Z,9.05
2018-09-22T02:08:23.781Z,7.28
2018-09-22T02:10:52.429Z,9.20
2018-09-22T02:13:21.108Z,7.58
2018-09-22T02:15:49.666Z,3.20
2018-09-22T02:18:18.298Z,6.45
2018-09-22T02:20:46.944Z,4.50
2018-09-22T02:23:15.552Z,13.35
2018-09-22T02:25:44.158Z,10.48
2018-09-22T02:28:12.865Z,6.03
2018-09-22T02:30:41.553Z,6.62
2018-09-22T02:33:10.164Z,4.30
2018-09-22T02:35:38.868Z,9.88
2018-09-22T02:38:07.581Z,9.88
2018-09-22T02:40:36.386Z,3.37
2018-09-22T02:43:05.054Z,1.30
2018-09-22T02:45:33.761Z,7.67
2018-09-22T02:48:02.480Z,10.38
2018-09-22T02:50:31.079Z,10.03
2018-09-22T02:52:59.736Z,7.65
2018-09-22T02:55:28.412Z,7.40
2018-09-22T02:57:57.018Z,12.55
2018-09-22T03:00:26.817Z,14.85
2018-09-22T03:02:55.424Z,8.33
2018-09-22T03:05:24.088Z,9.63
2018-09-22T03:07:53.150Z,7.47
2018-09-22T03:10:21.859Z,8.15
2018-09-22T03:12:50.450Z,12.40
2018-09-22T03:15:19.192Z,10.60
2018-09-22T03:17:47.727Z,7.35
2018-09-22T03:20:16.372Z,13.35
2018-09-22T03:22:45.459Z,10.48
2018-09-22T03:25:14.093Z,7.60
2018-09-22T03:27:42.810Z,7.50
2018-09-22T03:30:11.457Z,8.55
2018-09-22T03:32:40.314Z,7.20
2018-09-22T03:35:08.973Z,13.68
2018-09-22T03:37:37.654Z,4.33
2018-09-22T03:40:06.308Z,15.05
2018-09-22T03:42:34.950Z,8.30
2018-09-22T03:45:03.640Z,13.32
2018-09-22T03:47:32.262Z,9.03
2018-09-22T03:50:00.893Z,13.90
2018-09-22T03:52:29.945Z,5.62
2018-09-22T03:54:58.819Z,9.50
2018-09-22T03:57:27.929Z,5.90
2018-09-22T04:00:03.271Z,7.78
2018-09-22T04:02:31.934Z,8.40
2018-09-22T04:05:00.527Z,10.78
2018-09-22T04:07:29.145Z,5.40
2018-09-22T04:09:57.729Z,8.88
2018-09-22T04:12:26.526Z,11.48
2018-09-22T04:14:55.264Z,12.85
2018-09-22T04:17:23.862Z,10.98
2018-09-22T04:19:52.544Z,6.78
2018-09-22T04:22:21.177Z,9.18
2018-09-22T04:24:49.815Z,10.90
2018-09-22T04:27:18.369Z,7.28
2018-09-22T04:29:47.031Z,8.58
2018-09-22T04:32:15.676Z,10.35
2018-09-22T04:34:46.308Z,7.58
2018-09-22T04:37:14.937Z,8.30
2018-09-22T04:39:43.681Z,8.43
2018-09-22T04:42:12.259Z,8.15
2018-09-22T04:44:40.965Z,7.35
2018-09-22T04:47:09.564Z,9.23
2018-09-22T04:49:38.230Z,9.88
2018-09-22T04:52:07.304Z,10.75
2018-09-22T04:54:35.838Z,8.70
2018-09-22T04:57:04.452Z,10.70
2018-09-22T04:59:33.114Z,17.98
2018-09-22T05:02:01.740Z,7.47
2018-09-22T05:04:30.374Z,14.87
2018-09-22T05:06:59.026Z,17.52
2018-09-22T05:09:27.722Z,10.95
2018-09-22T05:11:56.317Z,13.20
2018-09-22T05:14:24.954Z,14.75
2018-09-22T05:16:53.911Z,10.58
2018-09-22T05:19:22.533Z,7.67
2018-09-22T05:21:51.218Z,16.65
2018-09-22T05:24:19.969Z,13.20
2018-09-22T05:26:48.728Z,13.88
2018-09-22T05:29:17.395Z,10.32
2018-09-22T05:31:46.084Z,5.30
2018-09-22T05:34:14.742Z,7.17
2018-09-22T05:36:43.456Z,15.75
2018-09-22T05:39:12.487Z,9.75
2018-09-22T05:41:41.229Z,10.58
2018-09-22T05:44:09.962Z,10.13
2018-09-22T05:46:38.730Z,6.45
2018-09-22T05:49:07.343Z,10.13
2018-09-22T05:51:35.986Z,11.95
2018-09-22T05:54:04.793Z,19.02
2018-09-22T05:56:33.389Z,9.18
2018-09-22T05:59:01.982Z,12.60
2018-09-22T06:01:30.622Z,5.90
2018-09-22T06:03:59.392Z,13.50
2018-09-22T06:06:27.913Z,18.52
2018-09-22T06:08:56.581Z,16.45
2018-09-22T06:11:25.160Z,18.10
2018-09-22T06:13:53.855Z,8.60
2018-09-22T06:16:22.537Z,6.85
2018-09-22T06:18:51.420Z,12.10
2018-09-22T06:21:20.058Z,9.93
2018-09-22T06:23:48.796Z,4.62
2018-09-22T06:26:17.433Z,13.65
2018-09-22T06:28:46.109Z,11.45
2018-09-22T06:31:14.704Z,9.33
2018-09-22T06:33:43.546Z,8.80
2018-09-22T06:36:12.116Z,9.33
2018-09-22T06:38:40.828Z,8.58
2018-09-22T06:41:09.405Z,10.35
2018-09-22T06:43:38.051Z,10.45
2018-09-22T06:46:06.678Z,9.00
2018-09-22T06:48:35.250Z,10.28
2018-09-22T06:51:03.997Z,11.20
2018-09-22T06:53:32.832Z,18.60
2018-09-22T06:56:01.541Z,9.83
2018-09-22T06:58:30.128Z,11.00
2018-09-22T07:00:58.819Z,8.03
2018-09-22T07:03:27.483Z,9.78
2018-09-22T07:05:56.067Z,8.70
2018-09-22T07:08:24.731Z,13.22
2018-09-22T07:10:53.572Z,6.37
2018-09-22T07:13:22.360Z,9.83
2018-09-22T07:15:51.228Z,9.50
2018-09-22T07:18:19.879Z,4.97
2018-09-22T07:20:53.897Z,14.70
2018-09-22T07:23:22.604Z,13.75
2018-09-22T07:25:51.456Z,12.15
2018-09-22T07:28:20.145Z,11.73
2018-09-22T07:30:48.827Z,14.68
2018-09-22T07:33:17.546Z,14.30
2018-09-22T07:35:46.378Z,15.80
2018-09-22T07:38:15.098Z,9.60
2018-09-22T07:40:43.770Z,11.08
2018-09-22T07:43:12.504Z,7.25
2018-09-22T07:45:41.308Z,16.32
2018-09-22T07:48:09.971Z,10.03
2018-09-22T07:50:38.583Z,6.35
2018-09-22T07:53:07.403Z,6.47
2018-09-22T07:55:36.640Z,8.80
2018-09-22T07:58:05.378Z,11.48
2018-09-22T08:00:34.099Z,11.38
2018-09-22T08:03:02.803Z,8.15
2018-09-22T08:05:31.445Z,9.63
2018-09-22T08:08:00.067Z,8.80
2018-09-22T08:10:28.758Z,8.88
2018-09-22T08:12:57.541Z,12.50
2018-09-22T08:15:26.310Z,16.75
2018-09-22T08:17:54.994Z,6.33
2018-09-22T08:20:23.632Z,7.28
2018-09-22T08:22:52.417Z,10.30
2018-09-22T08:25:21.066Z,9.33
2018-09-22T08:27:49.639Z,13.58
2018-09-22T08:30:18.492Z,7.87
2018-09-22T08:32:47.231Z,12.73
2018-09-22T08:35:15.958Z,13.93
2018-09-22T08:37:44.535Z,9.13
2018-09-22T08:40:13.323Z,7.85
2018-09-22T08:42:41.910Z,7.87
2018-09-22T08:45:10.673Z,8.40
2018-09-22T08:47:39.471Z,18.83
2018-09-22T08:50:08.556Z,10.80
2018-09-22T08:52:37.172Z,14.53
2018-09-22T08:55:06.199Z,7.47
2018-09-22T08:57:34.849Z,12.37
2018-09-22T09:00:04.239Z,11.83
2018-09-22T09:02:32.981Z,11.57
2018-09-22T09:05:01.694Z,9.50
2018-09-22T09:07:30.399Z,7.63
2018-09-22T09:09:59.025Z,8.87
2018-09-22T09:12:27.644Z,12.87
2018-09-22T09:14:56.436Z,10.90
2018-09-22T09:17:25.099Z,11.20
2018-09-22T09:19:53.815Z,12.03
2018-09-22T09:22:22.444Z,8.70
2018-09-22T09:24:51.134Z,9.17
2018-09-22T09:27:19.769Z,9.17
2018-09-22T09:29:48.426Z,8.83
2018-09-22T09:32:17.772Z,11.00
2018-09-22T09:34:47.229Z,14.83
2018-09-22T09:37:16.015Z,10.17
2018-09-22T09:39:44.604Z,11.90
2018-09-22T09:42:13.279Z,18.50
2018-09-22T09:44:41.831Z,19.33
2018-09-22T09:47:10.606Z,13.03
2018-09-22T09:49:39.276Z,10.13
2018-09-22T09:52:08.152Z,6.60
2018-09-22T09:54:37.169Z,5.70
2018-09-22T09:57:05.846Z,13.37
2018-09-22T09:59:34.492Z,8.93
2018-09-22T10:02:03.086Z,13.10
2018-09-22T10:04:31.840Z,8.33
2018-09-22T10:07:00.565Z,13.57
2018-09-22T10:09:30.278Z,9.90
2018-09-22T10:11:59.133Z,7.87
2018-09-22T10:14:27.726Z,14.50
2018-09-22T10:16:56.382Z,7.37
2018-09-22T10:19:25.036Z,9.83
2018-09-22T10:21:53.699Z,12.60
2018-09-22T10:24:22.293Z,8.37
2018-09-22T10:26:50.945Z,8.80
2018-09-22T10:29:19.582Z,12.43
2018-09-22T10:31:48.216Z,8.77
2018-09-22T10:34:17.051Z,11.27
2018-09-22T10:36:45.787Z,10.33
2018-09-22T10:39:14.495Z,8.13
2018-09-22T10:41:43.122Z,5.13
2018-09-22T10:44:11.838Z,5.27
2018-09-22T10:46:40.598Z,6.20
2018-09-22T10:49:09.222Z,4.17
2018-09-22T10:51:37.909Z,6.07
2018-09-22T10:54:06.645Z,7.20
2018-09-22T10:56:35.314Z,10.33
2018-09-22T10:59:03.954Z,5.90
2018-09-22T11:01:32.513Z,7.87
2018-09-22T11:04:01.269Z,6.03
2018-09-22T11:06:29.909Z,4.00
2018-09-22T11:08:58.506Z,6.23
2018-09-22T11:11:27.271Z,5.90
2018-09-22T11:13:55.920Z,8.80
2018-09-22T11:16:24.574Z,3.63
2018-09-22T11:18:53.332Z,3.00
2018-09-22T11:21:21.995Z,7.00
2018-09-22T11:23:50.845Z,4.60
2018-09-22T11:26:19.498Z,10.27
2018-09-22T11:28:48.128Z,8.33
2018-09-22T11:31:16.905Z,4.13
2018-09-22T11:33:45.574Z,6.50
2018-09-22T11:36:14.516Z,5.70
2018-09-22T11:38:43.105Z,4.03
2018-09-22T11:41:11.746Z,7.00
2018-09-22T11:43:40.372Z,6.37
2018-09-22T11:46:09.054Z,9.23
2018-09-22T11:48:37.790Z,9.70
2018-09-22T11:51:06.440Z,7.37
2018-09-22T11:53:35.054Z,8.90
2018-09-22T11:56:03.775Z,6.80
2018-09-22T11:58:32.376Z,7.40
2018-09-22T12:01:01.268Z,5.10
2018-09-22T12:03:29.818Z,8.13
2018-09-22T12:05:58.562Z,5.27
2018-09-22T12:08:27.240Z,6.20
2018-09-22T12:10:56.047Z,8.07
2018-09-22T12:13:24.759Z,6.63
2018-09-22T12:15:53.388Z,5.80
2018-09-22T12:18:22.073Z,2.30
2018-09-22T12:20:50.745Z,3.73
2018-09-22T12:23:19.366Z,3.17
2018-09-22T12:25:48.040Z,4.03
2018-09-22T12:28:16.835Z,6.73
2018-09-22T12:30:45.453Z,5.90
2018-09-22T12:33:14.040Z,5.20
2018-09-22T12:35:42.572Z,3.97
2018-09-22T12:38:11.515Z,5.10
2018-09-22T12:40:40.591Z,6.93
2018-09-22T12:43:09.254Z,7.43
2018-09-22T12:45:37.912Z,10.43
2018-09-22T12:48:06.613Z,8.30
2018-09-22T12:50:35.232Z,7.80
2018-09-22T12:53:03.861Z,7.17
2018-09-22T12:55:32.575Z,2.57
2018-09-22T12:58:01.257Z,8.70
2018-09-22T13:00:29.918Z,6.43
2018-09-22T13:02:58.592Z,3.30
2018-09-22T13:05:27.396Z,8.47
2018-09-22T13:07:55.971Z,3.33
2018-09-22T13:10:24.711Z,6.67
2018-09-22T13:12:53.322Z,7.77
2018-09-22T13:15:22.062Z,3.87
2018-09-22T13:17:50.817Z,3.77
2018-09-22T13:20:19.464Z,10.20
2018-09-22T13:22:48.031Z,2.80
2018-09-22T13:25:16.649Z,3.97
2018-09-22T13:27:45.369Z,5.67
2018-09-22T13:30:14.078Z,8.83
2018-09-22T13:32:42.642Z,4.37
2018-09-22T13:35:11.266Z,6.70
2018-09-22T13:37:39.957Z,5.53
2018-09-22T13:40:08.610Z,6.60
2018-09-22T13:42:37.410Z,7.50
2018-09-22T13:45:06.394Z,3.57
2018-09-22T13:47:35.383Z,5.57
2018-09-22T13:50:05.062Z,5.63
2018-09-22T13:52:34.139Z,9.40
2018-09-22T13:55:02.831Z,4.60
2018-09-22T13:57:31.787Z,4.33
2018-09-22T14:00:00.436Z,3.07
2018-09-22T14:02:29.124Z,5.00
2018-09-22T14:04:57.763Z,9.53
2018-09-22T14:07:26.620Z,7.03
2018-09-22T14:09:55.232Z,10.33
2018-09-22T14:12:23.781Z,6.50
2018-09-22T14:14:52.368Z,6.43
2018-09-22T14:17:20.933Z,3.00
2018-09-22T14:19:49.535Z,3.30
2018-09-22T14:22:18.153Z,3.23
2018-09-22T14:24:46.794Z,8.47
2018-09-22T14:27:15.443Z,5.10
2018-09-22T14:29:44.056Z,8.33
2018-09-22T14:32:12.565Z,8.20
2018-09-22T14:34:41.188Z,4.60
2018-09-22T14:37:09.971Z,9.40
2018-09-22T14:39:38.495Z,12.03
2018-09-22T14:42:07.326Z,8.70
2018-09-22T14:44:35.948Z,8.60
2018-09-22T14:47:04.564Z,8.37
2018-09-22T14:49:33.174Z,9.10
2018-09-22T14:52:01.855Z,7.20
2018-09-22T14:54:30.620Z,4.87
2018-09-22T14:56:59.560Z,11.50
2018-09-22T14:59:28.429Z,5.13
2018-09-22T15:01:57.104Z,7.83
2018-09-22T15:04:25.712Z,3.80
2018-09-22T15:06:54.322Z,2.10
2018-09-22T15:09:23.109Z,4.62
2018-09-22T15:11:51.753Z,2.33
2018-09-22T15:14:20.320Z,2.98
2018-09-22T15:16:48.929Z,1.40
2018-09-22T15:19:17.508Z,5.33
2018-09-22T15:21:46.530Z,2.47
2018-09-22T15:24:15.229Z,2.35
2018-09-22T15:26:43.834Z,4.20
2018-09-22T15:29:12.553Z,4.83
2018-09-22T15:31:41.436Z,3.62
2018-09-22T15:34:10.684Z,4.20
2018-09-22T15:36:39.507Z,1.30
2018-09-22T15:39:08.879Z,3.65
2018-09-22T15:41:37.612Z,7.12
2018-09-22T15:44:06.257Z,6.15
2018-09-22T15:46:34.884Z,3.15
2018-09-22T15:49:03.585Z,2.33
2018-09-22T15:51:32.150Z,2.20
2018-09-22T15:54:00.914Z,6.45
2018-09-22T15:56:29.499Z,4.83
2018-09-22T15:58:58.260Z,5.15
2018-09-22T16:01:26.974Z,3.25
2018-09-22T16:03:55.551Z,10.28
2018-09-22T16:06:24.115Z,6.00
2018-09-22T16:08:52.797Z,2.25
2018-09-22T16:11:21.393Z,8.30
2018-09-22T16:13:51.435Z,5.25
2018-09-22T16:16:20.138Z,3.42
2018-09-22T16:18:48.825Z,2.80
2018-09-22T16:21:17.451Z,5.60
2018-09-22T16:23:46.202Z,2.55
2018-09-22T16:26:14.951Z,5.85
2018-09-22T16:28:43.597Z,2.08
2018-09-22T16:31:12.361Z,6.92
2018-09-22T16:33:40.953Z,8.38
2018-09-22T16:36:09.564Z,4.60
2018-09-22T16:38:38.224Z,2.42
2018-09-22T16:41:06.837Z,3.45
2018-09-22T16:43:35.411Z,3.95
2018-09-22T16:46:04.097Z,2.85
2018-09-22T16:48:32.884Z,5.17
2018-09-22T16:51:01.623Z,8.18
2018-09-22T16:53:30.285Z,3.25
2018-09-22T16:55:58.921Z,3.58
2018-09-22T16:58:27.613Z,4.87
2018-09-22T17:00:56.217Z,3.50
2018-09-22T17:03:24.921Z,3.33
2018-09-22T17:05:53.584Z,7.40
2018-09-22T17:08:22.196Z,3.83
2018-09-22T17:10:51.415Z,8.73
2018-09-22T17:13:20.063Z,7.40
2018-09-22T17:15:48.802Z,8.80
2018-09-22T17:18:17.704Z,4.28
2018-09-22T17:20:46.580Z,7.15
2018-09-22T17:23:15.294Z,5.55
2018-09-22T17:25:43.887Z,6.65
2018-09-22T17:28:15.678Z,5.62
2018-09-22T17:30:44.560Z,4.30
2018-09-22T17:33:14.412Z,7.67
2018-09-22T17:35:43.128Z,7.00
2018-09-22T17:38:12.246Z,11.10
2018-09-22T17:40:41.273Z,5.97
2018-09-22T17:43:09.969Z,7.40
2018-09-22T17:45:38.637Z,7.70
2018-09-22T17:48:07.255Z,6.55
2018-09-22T17:50:36.023Z,5.70
2018-09-22T17:53:04.766Z,4.08
2018-09-22T17:55:33.472Z,5.42
2018-09-22T17:58:02.128Z,8.35
2018-09-22T18:00:30.776Z,8.13
2018-09-22T18:02:59.371Z,7.30
2018-09-22T18:05:27.978Z,8.35
2018-09-22T18:07:56.609Z,7.35
2018-09-22T18:10:25.264Z,11.70
2018-09-22T18:12:53.893Z,9.03
2018-09-22T18:15:22.558Z,5.58
2018-09-22T18:17:51.317Z,7.33
2018-09-22T18:20:20.023Z,8.20
2018-09-22T18:22:48.627Z,6.90
2018-09-22T18:25:17.478Z,7.50
2018-09-22T18:27:46.189Z,7.33
2018-09-22T18:30:14.801Z,8.98
2018-09-22T18:32:43.506Z,12.78
2018-09-22T18:35:12.086Z,7.40
2018-09-22T18:37:40.657Z,6.70
2018-09-22T18:40:09.360Z,5.62
2018-09-22T18:42:37.984Z,9.78
2018-09-22T18:45:06.753Z,7.08
2018-09-22T18:47:35.334Z,6.22
2018-09-22T18:50:04.289Z,10.50
2018-09-22T18:52:32.985Z,5.25
2018-09-22T18:55:02.692Z,7.15
2018-09-22T18:57:31.366Z,6.72
2018-09-22T19:00:00.002Z,14.45
2018-09-22T19:02:28.639Z,6.45
2018-09-22T19:04:57.301Z,8.55
2018-09-22T19:07:25.911Z,5.92
2018-09-22T19:09:54.584Z,8.78
2018-09-22T19:12:23.359Z,5.60
2018-09-22T19:15:54.670Z,11.15
2018-09-22T19:18:34.732Z,12.30
2018-09-22T19:21:44.312Z,13.55
2018-09-22T19:25:16.841Z,9.13
2018-09-22T19:28:19.867Z,7.00
2018-09-22T19:30:51.706Z,7.90
2018-09-22T19:33:54.776Z,12.28
2018-09-22T19:36:30.113Z,8.13
2018-09-22T19:39:02.630Z,7.72
2018-09-22T19:41:35.184Z,8.45
2018-09-22T19:44:11.214Z,16.60
2018-09-22T19:46:46.450Z,7.85
2018-09-22T19:49:20.844Z,7.40
2018-09-22T19:51:52.927Z,7.70
2018-09-22T19:54:21.598Z,8.33
2018-09-22T19:56:50.311Z,9.18
2018-09-22T19:59:18.914Z,13.05
2018-09-22T20:01:47.524Z,10.18
2018-09-22T20:04:16.132Z,9.33
2018-09-22T20:06:44.780Z,12.53
2018-09-22T20:09:13.410Z,7.95
2018-09-22T20:11:42.214Z,15.15
2018-09-22T20:14:10.945Z,10.30
2018-09-22T20:16:39.548Z,8.30
2018-09-22T20:19:08.240Z,15.98
2018-09-22T20:21:36.919Z,10.70
2018-09-22T20:24:05.629Z,8.23
2018-09-22T20:26:34.305Z,8.83
2018-09-22T20:29:03.132Z,8.08
2018-09-22T20:31:31.952Z,11.43
2018-09-22T20:34:00.530Z,11.73
2018-09-22T20:36:29.416Z,11.63
2018-09-22T20:38:57.878Z,12.33
2018-09-22T20:41:26.792Z,12.25
2018-09-22T20:43:55.455Z,10.93
2018-09-22T20:46:24.207Z,11.08
2018-09-22T20:48:52.794Z,8.90
2018-09-22T20:51:21.392Z,17.02
2018-09-22T20:53:50.128Z,14.53
2018-09-22T20:56:18.609Z,11.30
2018-09-22T20:58:47.265Z,12.53
2018-09-22T21:01:15.980Z,13.28
2018-09-22T21:03:44.684Z,14.03
2018-09-22T21:06:13.361Z,13.90
2018-09-22T21:08:42.048Z,13.55
2018-09-22T21:11:10.704Z,14.20
2018-09-22T21:13:39.307Z,12.68
2018-09-22T21:16:08.006Z,11.75
2018-09-22T21:18:36.755Z,9.70
2018-09-22T21:21:05.542Z,13.28
2018-09-22T21:23:34.155Z,16.32
2018-09-22T21:26:02.721Z,11.88
2018-09-22T21:28:31.442Z,17.35
2018-09-22T21:31:00.042Z,12.20
2018-09-22T21:33:28.696Z,15.05
2018-09-22T21:35:57.278Z,13.10
2018-09-22T21:38:25.869Z,9.93
2018-09-22T21:40:54.548Z,14.05
2018-09-22T21:43:23.202Z,11.83
2018-09-22T21:45:51.765Z,14.10
2018-09-22T21:48:20.461Z,13.88
2018-09-22T21:50:49.099Z,15.60
2018-09-22T21:53:17.694Z,11.95
2018-09-22T21:55:46.338Z,13.58
2018-09-22T21:58:15.043Z,11.65
2018-09-22T22:00:47.771Z,13.20
2018-09-22T22:03:16.409Z,13.88
2018-09-22T22:05:44.989Z,16.50
2018-09-22T22:08:13.854Z,17.80
2018-09-22T22:10:42.646Z,16.15
2018-09-22T22:13:11.513Z,14.78
2018-09-22T22:15:40.747Z,16.37
2018-09-22T22:18:09.383Z,11.97
2018-09-22T22:20:38.743Z,13.10
2018-09-22T22:23:08.573Z,14.90
2018-09-22T22:25:37.159Z,20.88
2018-09-22T22:28:06.102Z,15.43
2018-09-22T22:30:34.777Z,20.05
2018-09-22T22:33:03.405Z,17.30
2018-09-22T22:35:32.066Z,17.37
2018-09-22T22:38:00.691Z,18.87
2018-09-22T22:40:29.340Z,18.35
2018-09-22T22:42:58.122Z,19.27
2018-09-22T22:45:26.955Z,22.95
2018-09-22T22:47:55.620Z,23.05
2018-09-22T22:50:24.365Z,20.62
2018-09-22T22:52:52.958Z,21.90
2018-09-22T22:55:21.550Z,25.97
2018-09-22T22:57:50.135Z,23.75
2018-09-22T23:00:18.844Z,27.95
2018-09-22T23:02:47.429Z,29.57
2018-09-22T23:05:16.085Z,25.55
2018-09-22T23:07:44.728Z,29.55
2018-09-22T23:10:13.299Z,29.52
2018-09-22T23:12:41.935Z,26.55
2018-09-22T23:15:10.573Z,30.60
2018-09-22T23:17:39.193Z,30.68
2018-09-22T23:20:07.796Z,31.50
2018-09-22T23:22:36.406Z,33.70
2018-09-22T23:25:05.113Z,31.23
2018-09-22T23:27:33.694Z,33.02
2018-09-22T23:30:02.391Z,35.92
2018-09-22T23:32:31.036Z,33.00
2018-09-22T23:34:59.633Z,31.73
2018-09-22T23:37:28.351Z,35.45
2018-09-22T23:39:56.969Z,33.02
2018-09-22T23:42:25.587Z,36.70
2018-09-22T23:44:54.406Z,35.52
2018-09-22T23:47:23.052Z,29.48
2018-09-22T23:49:51.661Z,35.73
2018-09-22T23:52:20.281Z,30.75
2018-09-22T23:54:48.854Z,30.57
2018-09-22T23:57:17.495Z,35.95
2018-09-22T23:59:46.179Z,35.73
